sensor_id;sensor_type;location;lat;lon;timestamp;pressure;altitude;pressure_sealevel;temperature;humidity
11124;BME280;5616;42.692;23.312;2023-03-25T00:01:47;94858.81;;;11.12;69.48
11124;BME280;5616;42.692;23.312;2023-03-25T00:04:13;94862.16;;;11.06;69.36
11124;BME280;5616;42.692;23.312;2023-03-25T00:06:42;94868.69;;;11.02;69.45
11124;BME280;5616;42.692;23.312;2023-03-25T00:09:08;94863.34;;;11.03;69.86
11124;BME280;5616;42.692;23.312;2023-03-25T00:11:35;94860.94;;;11.02;69.47
11124;BME280;5616;42.692;23.312;2023-03-25T00:14:02;94855.97;;;11.00;69.16
11124;BME280;5616;42.692;23.312;2023-03-25T00:16:30;94846.59;;;10.99;69.09
11124;BME280;5616;42.692;23.312;2023-03-25T00:18:58;94847.19;;;10.95;70.03
11124;BME280;5616;42.692;23.312;2023-03-25T00:21:26;94847.72;;;10.90;70.22
11124;BME280;5616;42.692;23.312;2023-03-25T00:23:54;94849.09;;;10.86;69.90
11124;BME280;5616;42.692;23.312;2023-03-25T00:26:20;94845.53;;;10.87;69.72
11124;BME280;5616;42.692;23.312;2023-03-25T00:28:47;94832.63;;;10.87;69.63
11124;BME280;5616;42.692;23.312;2023-03-25T00:31:14;94835.38;;;10.86;69.91
11124;BME280;5616;42.692;23.312;2023-03-25T00:33:42;94830.78;;;10.81;70.09
11124;BME280;5616;42.692;23.312;2023-03-25T00:36:10;94832.41;;;10.82;70.47
11124;BME280;5616;42.692;23.312;2023-03-25T00:38:39;94835.59;;;10.84;70.90
11124;BME280;5616;42.692;23.312;2023-03-25T00:41:14;94846.28;;;10.81;70.25
11124;BME280;5616;42.692;23.312;2023-03-25T00:43:47;94841.53;;;10.57;71.64
11124;BME280;5616;42.692;23.312;2023-03-25T00:46:17;94836.44;;;10.64;71.18
11124;BME280;5616;42.692;23.312;2023-03-25T00:48:46;94834.78;;;10.56;71.47
11124;BME280;5616;42.692;23.312;2023-03-25T00:51:13;94830.81;;;10.60;71.53
11124;BME280;5616;42.692;23.312;2023-03-25T00:53:46;94829.56;;;10.50;72.09
11124;BME280;5616;42.692;23.312;2023-03-25T00:56:14;94827.03;;;10.56;72.36
11124;BME280;5616;42.692;23.312;2023-03-25T00:58:41;94816.88;;;10.55;72.14
11124;BME280;5616;42.692;23.312;2023-03-25T01:01:09;94822.03;;;10.55;71.97
11124;BME280;5616;42.692;23.312;2023-03-25T01:03:37;94822.16;;;10.47;72.15
11124;BME280;5616;42.692;23.312;2023-03-25T01:06:10;94819.34;;;10.41;72.32
11124;BME280;5616;42.692;23.312;2023-03-25T01:08:37;94818.78;;;10.46;71.76
11124;BME280;5616;42.692;23.312;2023-03-25T01:11:06;94817.31;;;10.58;72.06
11124;BME280;5616;42.692;23.312;2023-03-25T01:13:41;94805.03;;;10.67;71.56
11124;BME280;5616;42.692;23.312;2023-03-25T01:16:09;94800.06;;;10.65;71.47
11124;BME280;5616;42.692;23.312;2023-03-25T01:18:36;94806.66;;;10.68;71.45
11124;BME280;5616;42.692;23.312;2023-03-25T01:21:03;94812.19;;;10.65;71.08
11124;BME280;5616;42.692;23.312;2023-03-25T01:23:32;94802.44;;;10.60;70.97
11124;BME280;5616;42.692;23.312;2023-03-25T01:25:59;94798.25;;;10.59;70.83
11124;BME280;5616;42.692;23.312;2023-03-25T01:28:27;94803.16;;;10.54;71.23
11124;BME280;5616;42.692;23.312;2023-03-25T01:30:59;94793.03;;;10.53;71.47
11124;BME280;5616;42.692;23.312;2023-03-25T01:33:26;94783.28;;;10.48;71.89
11124;BME280;5616;42.692;23.312;2023-03-25T01:35:53;94782.41;;;10.41;72.76
11124;BME280;5616;42.692;23.312;2023-03-25T01:38:20;94779.94;;;10.26;73.20
11124;BME280;5616;42.692;23.312;2023-03-25T01:40:49;94779.50;;;10.23;73.20
11124;BME280;5616;42.692;23.312;2023-03-25T01:43:17;94777.09;;;10.21;72.80
11124;BME280;5616;42.692;23.312;2023-03-25T01:45:44;94772.31;;;10.18;72.74
11124;BME280;5616;42.692;23.312;2023-03-25T01:48:14;94778.66;;;10.16;73.01
11124;BME280;5616;42.692;23.312;2023-03-25T01:50:46;94776.06;;;10.16;72.66
11124;BME280;5616;42.692;23.312;2023-03-25T01:53:13;94783.97;;;10.14;73.15
11124;BME280;5616;42.692;23.312;2023-03-25T01:55:42;94779.44;;;10.16;73.06
11124;BME280;5616;42.692;23.312;2023-03-25T01:58:15;94778.03;;;10.14;73.05
11124;BME280;5616;42.692;23.312;2023-03-25T02:00:43;94774.56;;;10.07;73.10
11124;BME280;5616;42.692;23.312;2023-03-25T02:03:12;94776.16;;;10.08;73.18
11124;BME280;5616;42.692;23.312;2023-03-25T02:05:45;94769.03;;;10.10;73.52
11124;BME280;5616;42.692;23.312;2023-03-25T02:08:14;94774.88;;;9.97;74.22
11124;BME280;5616;42.692;23.312;2023-03-25T02:10:44;94769.34;;;10.00;74.40
11124;BME280;5616;42.692;23.312;2023-03-25T02:13:13;94761.38;;;9.95;74.12
11124;BME280;5616;42.692;23.312;2023-03-25T02:15:56;94766.53;;;9.95;74.00
11124;BME280;5616;42.692;23.312;2023-03-25T02:18:37;94765.84;;;9.87;74.61
11124;BME280;5616;42.692;23.312;2023-03-25T02:21:39;94755.31;;;9.88;74.27
11124;BME280;5616;42.692;23.312;2023-03-25T02:24:41;94758.91;;;9.87;75.27
11124;BME280;5616;42.692;23.312;2023-03-25T02:27:21;94752.47;;;9.76;74.89
11124;BME280;5616;42.692;23.312;2023-03-25T02:30:08;94756.44;;;9.79;75.63
11124;BME280;5616;42.692;23.312;2023-03-25T02:32:56;94756.69;;;9.84;75.42
11124;BME280;5616;42.692;23.312;2023-03-25T02:35:43;94757.66;;;9.83;74.23
11124;BME280;5616;42.692;23.312;2023-03-25T02:38:27;94754.28;;;9.82;74.42
11124;BME280;5616;42.692;23.312;2023-03-25T02:41:01;94756.25;;;9.80;75.12
11124;BME280;5616;42.692;23.312;2023-03-25T02:43:34;94753.06;;;9.78;74.94
11124;BME280;5616;42.692;23.312;2023-03-25T02:46:08;94756.38;;;9.72;74.81
11124;BME280;5616;42.692;23.312;2023-03-25T02:48:39;94757.16;;;9.73;74.31
11124;BME280;5616;42.692;23.312;2023-03-25T02:51:11;94752.63;;;9.75;74.16
11124;BME280;5616;42.692;23.312;2023-03-25T02:53:43;94747.22;;;9.70;74.56
11124;BME280;5616;42.692;23.312;2023-03-25T02:56:14;94753.19;;;9.70;74.06
11124;BME280;5616;42.692;23.312;2023-03-25T02:58:44;94751.56;;;9.69;74.22
11124;BME280;5616;42.692;23.312;2023-03-25T03:01:12;94746.59;;;9.68;74.71
11124;BME280;5616;42.692;23.312;2023-03-25T03:03:40;94734.81;;;9.59;75.40
11124;BME280;5616;42.692;23.312;2023-03-25T03:06:14;94733.63;;;9.61;75.15
11124;BME280;5616;42.692;23.312;2023-03-25T03:08:59;94734.03;;;9.58;75.83
11124;BME280;5616;42.692;23.312;2023-03-25T03:11:35;94733.63;;;9.61;75.52
11124;BME280;5616;42.692;23.312;2023-03-25T03:14:15;94733.63;;;9.61;75.87
11124;BME280;5616;42.692;23.312;2023-03-25T03:16:49;94740.97;;;9.58;75.64
11124;BME280;5616;42.692;23.312;2023-03-25T03:19:32;94744.63;;;9.49;76.36
11124;BME280;5616;42.692;23.312;2023-03-25T03:22:10;94738.06;;;9.46;76.00
11124;BME280;5616;42.692;23.312;2023-03-25T03:24:43;94745.97;;;9.45;76.61
11124;BME280;5616;42.692;23.312;2023-03-25T03:27:17;94751.75;;;9.47;76.12
11124;BME280;5616;42.692;23.312;2023-03-25T03:29:53;94747.03;;;9.50;76.41
11124;BME280;5616;42.692;23.312;2023-03-25T03:32:25;94742.59;;;9.44;77.07
11124;BME280;5616;42.692;23.312;2023-03-25T03:34:57;94746.38;;;9.63;82.17
11124;BME280;5616;42.692;23.312;2023-03-25T03:37:31;94746.53;;;9.61;77.62
11124;BME280;5616;42.692;23.312;2023-03-25T03:40:05;94750.09;;;9.60;76.41
11124;BME280;5616;42.692;23.312;2023-03-25T03:42:39;94760.34;;;9.54;75.97
11124;BME280;5616;42.692;23.312;2023-03-25T03:45:09;94758.88;;;9.45;76.21
11124;BME280;5616;42.692;23.312;2023-03-25T03:47:42;94755.47;;;9.44;76.44
11124;BME280;5616;42.692;23.312;2023-03-25T03:50:15;94753.09;;;9.43;76.60
11124;BME280;5616;42.692;23.312;2023-03-25T03:52:48;94753.09;;;9.43;77.06
11124;BME280;5616;42.692;23.312;2023-03-25T03:55:21;94749.28;;;9.39;77.74
11124;BME280;5616;42.692;23.312;2023-03-25T03:57:51;94746.53;;;9.26;77.58
11124;BME280;5616;42.692;23.312;2023-03-25T04:00:23;94751.63;;;9.19;78.64
11124;BME280;5616;42.692;23.312;2023-03-25T04:02:55;94753.66;;;9.09;78.17
11124;BME280;5616;42.692;23.312;2023-03-25T04:05:25;94756.06;;;9.10;78.92
11124;BME280;5616;42.692;23.312;2023-03-25T04:07:57;94759.06;;;9.14;79.11
11124;BME280;5616;42.692;23.312;2023-03-25T04:10:32;94754.31;;;9.11;78.35
11124;BME280;5616;42.692;23.312;2023-03-25T04:13:08;94757.13;;;9.16;77.77
11124;BME280;5616;42.692;23.312;2023-03-25T04:15:36;94758.41;;;9.05;77.92
11124;BME280;5616;42.692;23.312;2023-03-25T04:18:03;94754.56;;;9.01;78.65
11124;BME280;5616;42.692;23.312;2023-03-25T04:20:31;94744.91;;;9.03;78.11
11124;BME280;5616;42.692;23.312;2023-03-25T04:23:01;94749.25;;;9.03;77.87
11124;BME280;5616;42.692;23.312;2023-03-25T04:25:30;94746.03;;;9.01;77.88
11124;BME280;5616;42.692;23.312;2023-03-25T04:27:58;94749.00;;;8.98;79.25
11124;BME280;5616;42.692;23.312;2023-03-25T04:30:26;94742.31;;;8.89;78.52
11124;BME280;5616;42.692;23.312;2023-03-25T04:32:53;94752.88;;;8.94;79.23
11124;BME280;5616;42.692;23.312;2023-03-25T04:35:21;94751.19;;;9.01;78.98
11124;BME280;5616;42.692;23.312;2023-03-25T04:37:50;94755.09;;;9.11;79.22
11124;BME280;5616;42.692;23.312;2023-03-25T04:40:19;94758.41;;;9.05;79.02
11124;BME280;5616;42.692;23.312;2023-03-25T04:42:47;94752.88;;;9.08;79.28
11124;BME280;5616;42.692;23.312;2023-03-25T04:45:14;94754.41;;;9.03;78.74
11124;BME280;5616;42.692;23.312;2023-03-25T04:47:42;94760.44;;;9.10;78.94
11124;BME280;5616;42.692;23.312;2023-03-25T04:50:16;94760.78;;;9.07;78.95
11124;BME280;5616;42.692;23.312;2023-03-25T04:52:44;94753.91;;;9.14;78.52
11124;BME280;5616;42.692;23.312;2023-03-25T04:55:11;94762.81;;;9.11;77.86
11124;BME280;5616;42.692;23.312;2023-03-25T04:57:43;94764.66;;;9.17;78.38
11124;BME280;5616;42.692;23.312;2023-03-25T05:00:13;94745.84;;;9.17;78.22
11124;BME280;5616;42.692;23.312;2023-03-25T05:02:42;94760.47;;;9.31;78.00
11124;BME280;5616;42.692;23.312;2023-03-25T05:05:10;94769.88;;;9.39;77.63
11124;BME280;5616;42.692;23.312;2023-03-25T05:07:44;94761.25;;;9.46;76.54
11124;BME280;5616;42.692;23.312;2023-03-25T05:10:12;94761.34;;;9.53;76.90
11124;BME280;5616;42.692;23.312;2023-03-25T05:12:38;94771.44;;;9.54;76.87
11124;BME280;5616;42.692;23.312;2023-03-25T05:15:06;94760.59;;;9.59;77.54
11124;BME280;5616;42.692;23.312;2023-03-25T05:17:35;94763.03;;;9.67;77.30
11124;BME280;5616;42.692;23.312;2023-03-25T05:20:03;94773.09;;;9.76;77.08
11124;BME280;5616;42.692;23.312;2023-03-25T05:22:32;94761.28;;;9.89;76.00
11124;BME280;5616;42.692;23.312;2023-03-25T05:24:59;94751.09;;;10.02;75.76
11124;BME280;5616;42.692;23.312;2023-03-25T05:27:28;94765.31;;;10.12;75.27
11124;BME280;5616;42.692;23.312;2023-03-25T05:29:55;94762.22;;;10.23;75.20
11124;BME280;5616;42.692;23.312;2023-03-25T05:32:24;94765.28;;;10.33;74.87
11124;BME280;5616;42.692;23.312;2023-03-25T05:34:55;94760.59;;;10.43;73.81
11124;BME280;5616;42.692;23.312;2023-03-25T05:37:22;94760.88;;;10.55;74.13
11124;BME280;5616;42.692;23.312;2023-03-25T05:39:49;94766.88;;;10.62;74.11
11124;BME280;5616;42.692;23.312;2023-03-25T05:42:16;94760.91;;;10.62;73.58
11124;BME280;5616;42.692;23.312;2023-03-25T05:44:47;94768.34;;;10.71;72.20
11124;BME280;5616;42.692;23.312;2023-03-25T05:47:17;94772.00;;;10.83;72.46
11124;BME280;5616;42.692;23.312;2023-03-25T05:49:46;94765.31;;;10.95;71.09
11124;BME280;5616;42.692;23.312;2023-03-25T05:52:15;94772.13;;;11.10;70.76
11124;BME280;5616;42.692;23.312;2023-03-25T05:54:42;94765.47;;;11.22;70.23
11124;BME280;5616;42.692;23.312;2023-03-25T05:57:10;94758.31;;;11.30;69.13
11124;BME280;5616;42.692;23.312;2023-03-25T05:59:37;94767.34;;;11.47;67.95
11124;BME280;5616;42.692;23.312;2023-03-25T06:02:05;94768.19;;;11.61;67.83
11124;BME280;5616;42.692;23.312;2023-03-25T06:04:33;94776.03;;;11.74;66.89
11124;BME280;5616;42.692;23.312;2023-03-25T06:07:05;94774.44;;;11.86;67.15
11124;BME280;5616;42.692;23.312;2023-03-25T06:09:40;94768.09;;;11.95;66.70
11124;BME280;5616;42.692;23.312;2023-03-25T06:12:11;94759.53;;;12.01;65.65
11124;BME280;5616;42.692;23.312;2023-03-25T06:14:39;94754.97;;;12.10;65.59
11124;BME280;5616;42.692;23.312;2023-03-25T06:17:08;94753.19;;;12.17;65.10
11124;BME280;5616;42.692;23.312;2023-03-25T06:19:35;94758.38;;;12.23;64.89
11124;BME280;5616;42.692;23.312;2023-03-25T06:22:04;94751.00;;;12.34;65.04
11124;BME280;5616;42.692;23.312;2023-03-25T06:24:34;94759.56;;;12.47;64.14
11124;BME280;5616;42.692;23.312;2023-03-25T06:27:03;94757.59;;;12.56;63.73
11124;BME280;5616;42.692;23.312;2023-03-25T06:29:31;94767.34;;;12.60;64.04
11124;BME280;5616;42.692;23.312;2023-03-25T06:31:58;94761.94;;;12.68;63.83
11124;BME280;5616;42.692;23.312;2023-03-25T06:34:25;94767.13;;;12.75;63.60
11124;BME280;5616;42.692;23.312;2023-03-25T06:36:52;94763.94;;;12.79;63.04
11124;BME280;5616;42.692;23.312;2023-03-25T06:39:19;94764.13;;;12.78;62.54
11124;BME280;5616;42.692;23.312;2023-03-25T06:41:46;94767.53;;;12.85;62.62
11124;BME280;5616;42.692;23.312;2023-03-25T06:44:21;94764.50;;;12.95;62.45
11124;BME280;5616;42.692;23.312;2023-03-25T06:47:06;94758.50;;;13.07;61.79
11124;BME280;5616;42.692;23.312;2023-03-25T06:49:42;94764.91;;;13.11;62.34
11124;BME280;5616;42.692;23.312;2023-03-25T06:52:08;94768.47;;;13.17;61.10
11124;BME280;5616;42.692;23.312;2023-03-25T06:54:36;94772.41;;;13.26;61.10
11124;BME280;5616;42.692;23.312;2023-03-25T06:57:03;94770.81;;;13.38;59.94
11124;BME280;5616;42.692;23.312;2023-03-25T06:59:32;94771.75;;;13.43;60.42
11124;BME280;5616;42.692;23.312;2023-03-25T07:01:58;94776.94;;;13.50;59.66
11124;BME280;5616;42.692;23.312;2023-03-25T07:04:25;94772.91;;;13.61;59.85
11124;BME280;5616;42.692;23.312;2023-03-25T07:06:52;94785.41;;;13.70;59.63
11124;BME280;5616;42.692;23.312;2023-03-25T07:09:19;94779.19;;;13.78;58.82
11124;BME280;5616;42.692;23.312;2023-03-25T07:11:45;94777.53;;;13.90;58.61
11124;BME280;5616;42.692;23.312;2023-03-25T07:14:12;94772.28;;;14.03;58.08
11124;BME280;5616;42.692;23.312;2023-03-25T07:16:41;94765.81;;;14.12;58.00
11124;BME280;5616;42.692;23.312;2023-03-25T07:19:08;94768.16;;;14.20;57.24
11124;BME280;5616;42.692;23.312;2023-03-25T07:21:34;94756.38;;;14.18;58.07
11124;BME280;5616;42.692;23.312;2023-03-25T07:24:01;94763.34;;;14.24;57.62
11124;BME280;5616;42.692;23.312;2023-03-25T07:26:28;94766.53;;;14.32;57.00
11124;BME280;5616;42.692;23.312;2023-03-25T07:28:55;94766.16;;;14.53;56.42
11124;BME280;5616;42.692;23.312;2023-03-25T07:31:22;94764.28;;;14.60;56.21
11124;BME280;5616;42.692;23.312;2023-03-25T07:33:50;94762.38;;;14.74;55.78
11124;BME280;5616;42.692;23.312;2023-03-25T07:36:17;94767.47;;;14.87;55.55
11124;BME280;5616;42.692;23.312;2023-03-25T07:38:46;94759.66;;;14.87;55.48
11124;BME280;5616;42.692;23.312;2023-03-25T07:41:13;94765.66;;;14.88;55.15
11124;BME280;5616;42.692;23.312;2023-03-25T07:43:56;94758.50;;;15.01;54.99
11124;BME280;5616;42.692;23.312;2023-03-25T07:46:30;94753.31;;;15.01;55.61
11124;BME280;5616;42.692;23.312;2023-03-25T07:48:58;94757.22;;;15.10;55.31
11124;BME280;5616;42.692;23.312;2023-03-25T07:51:25;94761.06;;;15.26;53.94
11124;BME280;5616;42.692;23.312;2023-03-25T07:53:52;94740.38;;;15.31;54.54
11124;BME280;5616;42.692;23.312;2023-03-25T07:56:18;94742.25;;;15.42;54.80
11124;BME280;5616;42.692;23.312;2023-03-25T07:58:45;94743.19;;;15.66;54.38
11124;BME280;5616;42.692;23.312;2023-03-25T08:01:14;94738.44;;;15.63;53.88
11124;BME280;5616;42.692;23.312;2023-03-25T08:03:41;94732.06;;;15.88;53.02
11124;BME280;5616;42.692;23.312;2023-03-25T08:06:09;94733.72;;;16.01;53.57
11124;BME280;5616;42.692;23.312;2023-03-25T08:08:36;94731.25;;;16.06;53.23
11124;BME280;5616;42.692;23.312;2023-03-25T08:11:03;94720.41;;;16.32;53.25
11124;BME280;5616;42.692;23.312;2023-03-25T08:13:30;94709.47;;;16.54;53.12
11124;BME280;5616;42.692;23.312;2023-03-25T08:15:56;94696.53;;;16.70;50.72
11124;BME280;5616;42.692;23.312;2023-03-25T08:18:23;94708.47;;;16.78;51.70
11124;BME280;5616;42.692;23.312;2023-03-25T08:20:51;94717.16;;;16.95;50.40
11124;BME280;5616;42.692;23.312;2023-03-25T08:23:20;94705.47;;;16.97;50.17
11124;BME280;5616;42.692;23.312;2023-03-25T08:25:48;94701.75;;;16.93;50.79
11124;BME280;5616;42.692;23.312;2023-03-25T08:28:16;94703.88;;;17.20;49.52
11124;BME280;5616;42.692;23.312;2023-03-25T08:30:47;94707.97;;;17.44;49.19
11124;BME280;5616;42.692;23.312;2023-03-25T08:33:15;94713.63;;;17.92;47.85
11124;BME280;5616;42.692;23.312;2023-03-25T08:35:42;94710.81;;;18.10;47.67
11124;BME280;5616;42.692;23.312;2023-03-25T08:38:09;94704.75;;;18.38;47.28
11124;BME280;5616;42.692;23.312;2023-03-25T08:40:40;94698.44;;;18.51;46.75
11124;BME280;5616;42.692;23.312;2023-03-25T08:43:08;94692.75;;;18.75;46.56
11124;BME280;5616;42.692;23.312;2023-03-25T08:45:35;94682.22;;;19.09;45.92
11124;BME280;5616;42.692;23.312;2023-03-25T08:48:03;94684.19;;;19.62;44.46
11124;BME280;5616;42.692;23.312;2023-03-25T08:50:29;94682.03;;;19.80;44.54
11124;BME280;5616;42.692;23.312;2023-03-25T08:52:56;94679.28;;;19.97;43.13
11124;BME280;5616;42.692;23.312;2023-03-25T08:55:23;94675.81;;;20.18;41.77
11124;BME280;5616;42.692;23.312;2023-03-25T08:57:51;94672.31;;;20.07;41.93
11124;BME280;5616;42.692;23.312;2023-03-25T09:00:18;94680.47;;;20.11;42.76
11124;BME280;5616;42.692;23.312;2023-03-25T09:02:48;94671.34;;;19.87;42.55
11124;BME280;5616;42.692;23.312;2023-03-25T09:05:16;94669.81;;;19.91;42.45
11124;BME280;5616;42.692;23.312;2023-03-25T09:07:44;94669.91;;;19.74;42.10
11124;BME280;5616;42.692;23.312;2023-03-25T09:10:11;94668.59;;;19.98;42.15
11124;BME280;5616;42.692;23.312;2023-03-25T09:12:39;94659.91;;;20.56;41.36
11124;BME280;5616;42.692;23.312;2023-03-25T09:15:08;94657.81;;;20.58;40.74
11124;BME280;5616;42.692;23.312;2023-03-25T09:17:36;94646.34;;;20.74;39.77
11124;BME280;5616;42.692;23.312;2023-03-25T09:20:03;94645.56;;;21.21;39.58
11124;BME280;5616;42.692;23.312;2023-03-25T09:22:33;94649.34;;;21.50;37.87
11124;BME280;5616;42.692;23.312;2023-03-25T09:24:59;94644.84;;;21.41;38.79
11124;BME280;5616;42.692;23.312;2023-03-25T09:27:26;94643.16;;;22.07;38.54
11124;BME280;5616;42.692;23.312;2023-03-25T09:29:53;94635.78;;;22.24;38.93
11124;BME280;5616;42.692;23.312;2023-03-25T09:32:21;94638.53;;;21.42;37.78
11124;BME280;5616;42.692;23.312;2023-03-25T09:34:48;94643.28;;;21.45;38.29
11124;BME280;5616;42.692;23.312;2023-03-25T09:37:15;94636.47;;;21.49;38.74
11124;BME280;5616;42.692;23.312;2023-03-25T09:39:42;94630.91;;;21.30;39.94
11124;BME280;5616;42.692;23.312;2023-03-25T09:42:28;94629.91;;;21.51;38.71
11124;BME280;5616;42.692;23.312;2023-03-25T09:45:05;94625.19;;;21.68;38.11
11124;BME280;5616;42.692;23.312;2023-03-25T09:47:38;94626.28;;;21.77;38.72
11124;BME280;5616;42.692;23.312;2023-03-25T09:50:11;94618.44;;;22.03;38.11
11124;BME280;5616;42.692;23.312;2023-03-25T09:52:47;94620.00;;;22.39;37.41
11124;BME280;5616;42.692;23.312;2023-03-25T09:55:20;94612.34;;;22.63;36.27
11124;BME280;5616;42.692;23.312;2023-03-25T09:57:53;94601.03;;;22.62;36.30
11124;BME280;5616;42.692;23.312;2023-03-25T10:00:24;94611.53;;;22.82;35.47
11124;BME280;5616;42.692;23.312;2023-03-25T10:02:59;94602.81;;;22.87;35.63
11124;BME280;5616;42.692;23.312;2023-03-25T10:05:39;94607.22;;;23.11;35.83
11124;BME280;5616;42.692;23.312;2023-03-25T10:08:15;94606.13;;;23.23;35.05
11124;BME280;5616;42.692;23.312;2023-03-25T10:10:51;94604.22;;;23.43;33.59
11124;BME280;5616;42.692;23.312;2023-03-25T10:13:26;94596.31;;;23.43;34.24
11124;BME280;5616;42.692;23.312;2023-03-25T10:16:01;94593.94;;;23.32;34.03
11124;BME280;5616;42.692;23.312;2023-03-25T10:18:43;94584.50;;;23.26;33.58
11124;BME280;5616;42.692;23.312;2023-03-25T10:21:15;94582.63;;;23.31;33.73
11124;BME280;5616;42.692;23.312;2023-03-25T10:23:47;94585.31;;;23.21;31.39
11124;BME280;5616;42.692;23.312;2023-03-25T10:26:18;94575.31;;;23.18;32.53
11124;BME280;5616;42.692;23.312;2023-03-25T10:28:50;94572.41;;;23.20;31.85
11124;BME280;5616;42.692;23.312;2023-03-25T10:31:22;94573.97;;;23.26;31.51
11124;BME280;5616;42.692;23.312;2023-03-25T10:33:52;94562.38;;;23.27;31.25
11124;BME280;5616;42.692;23.312;2023-03-25T10:36:27;94562.75;;;23.00;32.11
11124;BME280;5616;42.692;23.312;2023-03-25T10:38:55;94558.59;;;22.94;32.26
11124;BME280;5616;42.692;23.312;2023-03-25T10:41:29;94563.06;;;22.88;32.53
11124;BME280;5616;42.692;23.312;2023-03-25T10:43:57;94549.94;;;22.83;32.38
11124;BME280;5616;42.692;23.312;2023-03-25T10:46:28;94549.94;;;22.83;31.80
11124;BME280;5616;42.692;23.312;2023-03-25T10:48:57;94540.16;;;22.84;32.27
11124;BME280;5616;42.692;23.312;2023-03-25T10:51:26;94547.88;;;22.70;32.61
11124;BME280;5616;42.692;23.312;2023-03-25T10:53:54;94536.31;;;22.56;33.15
11124;BME280;5616;42.692;23.312;2023-03-25T10:56:23;94543.41;;;22.66;33.46
11124;BME280;5616;42.692;23.312;2023-03-25T10:58:52;94528.34;;;22.81;34.31
11124;BME280;5616;42.692;23.312;2023-03-25T11:01:33;94525.69;;;22.91;33.77
11124;BME280;5616;42.692;23.312;2023-03-25T11:04:04;94521.94;;;22.97;33.27
11124;BME280;5616;42.692;23.312;2023-03-25T11:06:33;94516.66;;;23.02;32.65
11124;BME280;5616;42.692;23.312;2023-03-25T11:09:23;94517.34;;;23.23;32.85
11124;BME280;5616;42.692;23.312;2023-03-25T11:11:51;94505.25;;;23.17;33.49
11124;BME280;5616;42.692;23.312;2023-03-25T11:14:22;94507.31;;;23.25;32.80
11124;BME280;5616;42.692;23.312;2023-03-25T11:16:53;94490.66;;;23.40;33.33
11124;BME280;5616;42.692;23.312;2023-03-25T11:19:24;94495.44;;;23.28;34.72
11124;BME280;5616;42.692;23.312;2023-03-25T11:21:54;94482.94;;;23.09;34.82
11124;BME280;5616;42.692;23.312;2023-03-25T11:24:27;94489.03;;;22.95;35.08
11124;BME280;5616;42.692;23.312;2023-03-25T11:26:55;94482.06;;;22.75;35.24
11124;BME280;5616;42.692;23.312;2023-03-25T11:29:24;94486.00;;;22.73;35.69
11124;BME280;5616;42.692;23.312;2023-03-25T11:31:57;94482.22;;;22.15;35.21
11124;BME280;5616;42.692;23.312;2023-03-25T11:34:26;94482.75;;;22.17;35.02
11124;BME280;5616;42.692;23.312;2023-03-25T11:36:54;94480.34;;;22.30;35.62
11124;BME280;5616;42.692;23.312;2023-03-25T11:39:29;94470.59;;;22.36;33.29
11124;BME280;5616;42.692;23.312;2023-03-25T11:41:58;94478.94;;;22.53;33.75
11124;BME280;5616;42.692;23.312;2023-03-25T11:44:27;94468.91;;;22.70;33.77
11124;BME280;5616;42.692;23.312;2023-03-25T11:46:56;94458.91;;;22.72;34.71
11124;BME280;5616;42.692;23.312;2023-03-25T11:49:26;94460.16;;;22.80;34.87
11124;BME280;5616;42.692;23.312;2023-03-25T11:52:01;94455.59;;;22.95;34.07
11124;BME280;5616;42.692;23.312;2023-03-25T11:54:30;94448.09;;;23.18;34.05
11124;BME280;5616;42.692;23.312;2023-03-25T11:56:58;94441.63;;;23.34;34.44
11124;BME280;5616;42.692;23.312;2023-03-25T11:59:27;94432.09;;;23.48;32.12
11124;BME280;5616;42.692;23.312;2023-03-25T12:02:01;94439.41;;;23.56;31.52
11124;BME280;5616;42.692;23.312;2023-03-25T12:04:29;94441.94;;;23.66;33.13
11124;BME280;5616;42.692;23.312;2023-03-25T12:06:58;94443.06;;;23.60;33.18
11124;BME280;5616;42.692;23.312;2023-03-25T12:09:28;94428.94;;;23.46;33.74
11124;BME280;5616;42.692;23.312;2023-03-25T12:12:20;94425.38;;;23.27;31.69
11124;BME280;5616;42.692;23.312;2023-03-25T12:14:58;94427.94;;;22.98;33.61
11124;BME280;5616;42.692;23.312;2023-03-25T12:17:39;94427.63;;;22.55;33.58
11124;BME280;5616;42.692;23.312;2023-03-25T12:20:16;94431.28;;;22.60;32.90
11124;BME280;5616;42.692;23.312;2023-03-25T12:23:00;94435.22;;;22.62;32.69
11124;BME280;5616;42.692;23.312;2023-03-25T12:25:40;94430.03;;;22.42;34.24
11124;BME280;5616;42.692;23.312;2023-03-25T12:31:22;94434.63;;;22.11;34.51
11124;BME280;5616;42.692;23.312;2023-03-25T12:34:04;94433.28;;;22.19;33.28
11124;BME280;5616;42.692;23.312;2023-03-25T12:36:45;94446.44;;;22.19;34.10
11124;BME280;5616;42.692;23.312;2023-03-25T12:39:23;94445.38;;;22.25;34.73
11124;BME280;5616;42.692;23.312;2023-03-25T12:42:00;94438.09;;;22.02;34.76
11124;BME280;5616;42.692;23.312;2023-03-25T12:44:41;94425.47;;;21.83;34.48
11124;BME280;5616;42.692;23.312;2023-03-25T12:47:21;94431.50;;;21.89;34.32
11124;BME280;5616;42.692;23.312;2023-03-25T12:50:17;94430.75;;;21.93;33.58
11124;BME280;5616;42.692;23.312;2023-03-25T12:52:54;94426.78;;;21.81;35.22
11124;BME280;5616;42.692;23.312;2023-03-25T12:55:41;94432.31;;;21.79;34.65
11124;BME280;5616;42.692;23.312;2023-03-25T12:58:23;94422.06;;;21.68;33.77
11124;BME280;5616;42.692;23.312;2023-03-25T13:00:55;94426.53;;;21.72;34.56
11124;BME280;5616;42.692;23.312;2023-03-25T13:03:42;94428.38;;;21.67;34.70
11124;BME280;5616;42.692;23.312;2023-03-25T13:06:19;94429.16;;;21.57;34.56
11124;BME280;5616;42.692;23.312;2023-03-25T13:08:54;94425.25;;;21.24;35.74
11124;BME280;5616;42.692;23.312;2023-03-25T13:11:28;94421.03;;;21.08;36.04
11124;BME280;5616;42.692;23.312;2023-03-25T13:14:00;94424.94;;;21.01;35.68
11124;BME280;5616;42.692;23.312;2023-03-25T13:16:32;94431.50;;;20.88;36.06
11124;BME280;5616;42.692;23.312;2023-03-25T13:19:03;94432.22;;;20.68;36.65
11124;BME280;5616;42.692;23.312;2023-03-25T13:21:36;94431.69;;;20.66;36.80
11124;BME280;5616;42.692;23.312;2023-03-25T13:24:09;94426.91;;;20.48;37.35
11124;BME280;5616;42.692;23.312;2023-03-25T13:26:39;94425.09;;;20.49;38.30